sensor_id;sensor_type;location;lat;lon;timestamp;pressure;altitude;pressure_sealevel;temperature;humidity
17649;BME280;8943;51.110;-4.158;2023-06-22T00:00:40;101471.28;;;21.20;49.60
17649;BME280;8943;51.110;-4.158;2023-06-22T00:03:09;101464.66;;;21.14;49.80
17649;BME280;8943;51.110;-4.158;2023-06-22T00:05:37;101464.81;;;21.13;49.52
17649;BME280;8943;51.110;-4.158;2023-06-22T00:08:06;101469.19;;;21.05;49.61
17649;BME280;8943;51.110;-4.158;2023-06-22T00:10:36;101463.94;;;21.04;49.81
17649;BME280;8943;51.110;-4.158;2023-06-22T00:13:04;101469.31;;;20.96;49.66
17649;BME280;8943;51.110;-4.158;2023-06-22T00:15:33;101462.53;;;20.92;50.06
17649;BME280;8943;51.110;-4.158;2023-06-22T00:18:02;101475.53;;;20.88;49.86
17649;BME280;8943;51.110;-4.158;2023-06-22T00:20:30;101473.47;;;20.82;50.00
17649;BME280;8943;51.110;-4.158;2023-06-22T00:23:00;101480.41;;;20.76;50.16
17649;BME280;8943;51.110;-4.158;2023-06-22T00:25:28;101474.63;;;20.71;50.17
17649;BME280;8943;51.110;-4.158;2023-06-22T00:27:58;101463.09;;;20.69;50.17
17649;BME280;8943;51.110;-4.158;2023-06-22T00:30:26;101474.78;;;20.70;50.53
17649;BME280;8943;51.110;-4.158;2023-06-22T00:32:55;101468.53;;;20.69;50.65
17649;BME280;8943;51.110;-4.158;2023-06-22T00:35:23;101477.00;;;20.74;50.33
17649;BME280;8943;51.110;-4.158;2023-06-22T00:37:56;101478.00;;;20.73;50.69
17649;BME280;8943;51.110;-4.158;2023-06-22T00:40:29;101466.19;;;20.74;50.44
17649;BME280;8943;51.110;-4.158;2023-06-22T00:43:00;101474.66;;;20.79;50.80
17649;BME280;8943;51.110;-4.158;2023-06-22T00:45:28;101467.53;;;20.78;50.68
17649;BME280;8943;51.110;-4.158;2023-06-22T00:47:57;101468.59;;;20.86;50.43
17649;BME280;8943;51.110;-4.158;2023-06-22T00:50:27;101466.56;;;20.88;50.42
17649;BME280;8943;51.110;-4.158;2023-06-22T00:53:03;101462.09;;;20.78;50.58
17649;BME280;8943;51.110;-4.158;2023-06-22T00:55:36;101473.28;;;20.75;50.38
17649;BME280;8943;51.110;-4.158;2023-06-22T00:58:07;101458.00;;;20.66;50.47
17649;BME280;8943;51.110;-4.158;2023-06-22T01:00:38;101458.97;;;20.57;50.45
17649;BME280;8943;51.110;-4.158;2023-06-22T01:03:06;101464.63;;;20.46;50.45
17649;BME280;8943;51.110;-4.158;2023-06-22T01:05:38;101464.84;;;20.35;50.51
17649;BME280;8943;51.110;-4.158;2023-06-22T01:08:15;101468.03;;;20.30;50.65
17649;BME280;8943;51.110;-4.158;2023-06-22T01:10:46;101474.94;;;20.24;50.73
17649;BME280;8943;51.110;-4.158;2023-06-22T01:13:27;101472.56;;;20.21;50.75
17649;BME280;8943;51.110;-4.158;2023-06-22T01:16:00;101469.13;;;20.19;50.80
17649;BME280;8943;51.110;-4.158;2023-06-22T01:18:31;101464.66;;;20.10;50.96
17649;BME280;8943;51.110;-4.158;2023-06-22T01:21:04;101473.41;;;20.04;51.08
17649;BME280;8943;51.110;-4.158;2023-06-22T01:23:51;101472.50;;;19.95;51.03
17649;BME280;8943;51.110;-4.158;2023-06-22T01:26:27;101470.88;;;19.85;51.13
17649;BME280;8943;51.110;-4.158;2023-06-22T01:28:59;101490.59;;;19.77;51.50
17649;BME280;8943;51.110;-4.158;2023-06-22T01:31:28;101482.56;;;19.67;51.58
17649;BME280;8943;51.110;-4.158;2023-06-22T01:34:00;101482.69;;;19.66;51.52
17649;BME280;8943;51.110;-4.158;2023-06-22T01:36:29;101481.28;;;19.62;51.39
17649;BME280;8943;51.110;-4.158;2023-06-22T01:39:02;101488.97;;;19.56;51.80
17649;BME280;8943;51.110;-4.158;2023-06-22T01:41:35;101488.47;;;19.53;51.86
17649;BME280;8943;51.110;-4.158;2023-06-22T01:44:06;101477.94;;;19.50;51.59
17649;BME280;8943;51.110;-4.158;2023-06-22T01:46:35;101481.47;;;19.50;51.75
17649;BME280;8943;51.110;-4.158;2023-06-22T01:49:06;101472.69;;;19.48;51.72
17649;BME280;8943;51.110;-4.158;2023-06-22T01:51:34;101479.94;;;19.48;51.69
17649;BME280;8943;51.110;-4.158;2023-06-22T01:54:02;101478.00;;;19.40;51.89
17649;BME280;8943;51.110;-4.158;2023-06-22T01:56:31;101483.00;;;19.35;51.75
17649;BME280;8943;51.110;-4.158;2023-06-22T01:59:12;101481.59;;;19.31;52.01
17649;BME280;8943;51.110;-4.158;2023-06-22T02:01:44;101480.34;;;19.25;52.09
17649;BME280;8943;51.110;-4.158;2023-06-22T02:04:21;101484.91;;;19.25;52.09
17649;BME280;8943;51.110;-4.158;2023-06-22T02:06:51;101491.78;;;19.19;52.07
17649;BME280;8943;51.110;-4.158;2023-06-22T02:09:23;101488.81;;;19.13;52.08
17649;BME280;8943;51.110;-4.158;2023-06-22T02:11:56;101488.16;;;19.01;52.29
17649;BME280;8943;51.110;-4.158;2023-06-22T02:14:26;101492.88;;;18.99;52.42
17649;BME280;8943;51.110;-4.158;2023-06-22T02:16:55;101498.28;;;18.99;52.40
17649;BME280;8943;51.110;-4.158;2023-06-22T02:19:26;101502.28;;;18.95;52.28
17649;BME280;8943;51.110;-4.158;2023-06-22T02:22:00;101502.97;;;18.97;52.29
17649;BME280;8943;51.110;-4.158;2023-06-22T02:24:28;101506.38;;;18.99;52.54
17649;BME280;8943;51.110;-4.158;2023-06-22T02:26:59;101495.69;;;18.97;52.19
17649;BME280;8943;51.110;-4.158;2023-06-22T02:29:29;101509.94;;;18.99;52.29
17649;BME280;8943;51.110;-4.158;2023-06-22T02:31:57;101515.84;;;19.03;52.29
17649;BME280;8943;51.110;-4.158;2023-06-22T02:34:26;101510.47;;;19.03;52.29
17649;BME280;8943;51.110;-4.158;2023-06-22T02:36:55;101499.66;;;19.03;52.27
17649;BME280;8943;51.110;-4.158;2023-06-22T02:39:24;101504.09;;;19.04;52.16
17649;BME280;8943;51.110;-4.158;2023-06-22T02:41:54;101506.47;;;19.07;52.18
17649;BME280;8943;51.110;-4.158;2023-06-22T02:44:22;101510.47;;;19.03;52.35
17649;BME280;8943;51.110;-4.158;2023-06-22T02:46:52;101504.09;;;19.04;52.41
17649;BME280;8943;51.110;-4.158;2023-06-22T02:49:21;101507.91;;;19.01;52.22
17649;BME280;8943;51.110;-4.158;2023-06-22T02:51:49;101500.97;;;18.99;52.06
17649;BME280;8943;51.110;-4.158;2023-06-22T02:54:17;101499.00;;;18.91;52.25
17649;BME280;8943;51.110;-4.158;2023-06-22T02:56:47;101502.72;;;18.90;52.32
17649;BME280;8943;51.110;-4.158;2023-06-22T02:59:17;101502.72;;;18.90;52.28
17649;BME280;8943;51.110;-4.158;2023-06-22T03:01:52;101506.53;;;18.88;52.34
17649;BME280;8943;51.110;-4.158;2023-06-22T03:04:20;101503.72;;;18.89;52.32
17649;BME280;8943;51.110;-4.158;2023-06-22T03:06:49;101504.00;;;18.86;52.34
17649;BME280;8943;51.110;-4.158;2023-06-22T03:09:18;101501.13;;;18.88;52.34
17649;BME280;8943;51.110;-4.158;2023-06-22T03:11:46;101499.72;;;18.84;52.08
17649;BME280;8943;51.110;-4.158;2023-06-22T03:14:14;101499.47;;;18.77;52.29
17649;BME280;8943;51.110;-4.158;2023-06-22T03:16:43;101498.22;;;18.71;52.38
17649;BME280;8943;51.110;-4.158;2023-06-22T03:19:13;101493.09;;;18.68;52.18
17649;BME280;8943;51.110;-4.158;2023-06-22T03:21:41;101496.38;;;18.72;52.53
17649;BME280;8943;51.110;-4.158;2023-06-22T03:24:10;101499.22;;;18.70;52.69
17649;BME280;8943;51.110;-4.158;2023-06-22T03:26:38;101498.91;;;18.73;52.30
17649;BME280;8943;51.110;-4.158;2023-06-22T03:29:06;101492.81;;;18.71;52.41
17649;BME280;8943;51.110;-4.158;2023-06-22T03:31:34;101489.00;;;18.64;52.46
17649;BME280;8943;51.110;-4.158;2023-06-22T03:34:03;101489.00;;;18.64;52.65
17649;BME280;8943;51.110;-4.158;2023-06-22T03:36:33;101499.47;;;18.67;52.67
17649;BME280;8943;51.110;-4.158;2023-06-22T03:39:01;101502.63;;;18.72;52.47
17649;BME280;8943;51.110;-4.158;2023-06-22T03:41:31;101511.03;;;18.69;52.60
17649;BME280;8943;51.110;-4.158;2023-06-22T03:43:59;101505.63;;;18.69;52.55
17649;BME280;8943;51.110;-4.158;2023-06-22T03:46:27;101501.19;;;18.68;52.02
17649;BME280;8943;51.110;-4.158;2023-06-22T03:48:55;101498.38;;;18.60;52.31
17649;BME280;8943;51.110;-4.158;2023-06-22T03:51:24;101505.22;;;18.55;52.05
17649;BME280;8943;51.110;-4.158;2023-06-22T03:53:54;101501.09;;;18.50;52.29
17649;BME280;8943;51.110;-4.158;2023-06-22T03:56:22;101496.81;;;18.48;52.25
17649;BME280;8943;51.110;-4.158;2023-06-22T03:58:51;101504.75;;;18.49;52.44
17649;BME280;8943;51.110;-4.158;2023-06-22T04:01:19;101506.91;;;18.46;52.37
17649;BME280;8943;51.110;-4.158;2023-06-22T04:03:47;101502.97;;;18.40;52.54
17649;BME280;8943;51.110;-4.158;2023-06-22T04:06:16;101496.00;;;18.38;52.34
17649;BME280;8943;51.110;-4.158;2023-06-22T04:08:45;101499.69;;;18.37;52.58
17649;BME280;8943;51.110;-4.158;2023-06-22T04:11:19;101498.69;;;18.38;52.62
17649;BME280;8943;51.110;-4.158;2023-06-22T04:13:48;101494.56;;;18.34;52.71
17649;BME280;8943;51.110;-4.158;2023-06-22T04:16:18;101488.63;;;18.30;52.50
17649;BME280;8943;51.110;-4.158;2023-06-22T04:18:46;101482.53;;;18.18;52.57
17649;BME280;8943;51.110;-4.158;2023-06-22T04:21:14;101490.19;;;18.13;52.72
17649;BME280;8943;51.110;-4.158;2023-06-22T04:23:43;101495.88;;;18.10;52.85
17649;BME280;8943;51.110;-4.158;2023-06-22T04:26:12;101488.22;;;18.06;53.13
17649;BME280;8943;51.110;-4.158;2023-06-22T04:28:43;101492.75;;;18.05;52.98
17649;BME280;8943;51.110;-4.158;2023-06-22T04:31:18;101489.09;;;18.06;52.95
17649;BME280;8943;51.110;-4.158;2023-06-22T04:33:47;101483.69;;;18.06;52.98
17649;BME280;8943;51.110;-4.158;2023-06-22T04:36:15;101491.47;;;18.09;53.10
17649;BME280;8943;51.110;-4.158;2023-06-22T04:38:43;101485.81;;;18.12;53.01
17649;BME280;8943;51.110;-4.158;2023-06-22T04:41:12;101494.31;;;18.17;53.24
17649;BME280;8943;51.110;-4.158;2023-06-22T04:43:52;101494.75;;;18.22;53.00
17649;BME280;8943;51.110;-4.158;2023-06-22T04:46:24;101491.88;;;18.24;52.95
17649;BME280;8943;51.110;-4.158;2023-06-22T04:48:53;101496.28;;;18.25;52.71
17649;BME280;8943;51.110;-4.158;2023-06-22T04:51:21;101494.16;;;18.28;53.05
17649;BME280;8943;51.110;-4.158;2023-06-22T04:53:56;101493.88;;;18.32;52.82
17649;BME280;8943;51.110;-4.158;2023-06-22T04:56:27;101495.56;;;18.33;52.76
17649;BME280;8943;51.110;-4.158;2023-06-22T04:58:57;101494.56;;;18.34;53.12
17649;BME280;8943;51.110;-4.158;2023-06-22T05:01:26;101495.00;;;18.39;52.81
17649;BME280;8943;51.110;-4.158;2023-06-22T05:03:54;101491.31;;;18.40;52.89
17649;BME280;8943;51.110;-4.158;2023-06-22T05:06:24;101497.69;;;18.39;52.93
17649;BME280;8943;51.110;-4.158;2023-06-22T05:08:53;101498.69;;;18.38;52.98
17649;BME280;8943;51.110;-4.158;2023-06-22T05:11:25;101495.72;;;18.41;52.76
17649;BME280;8943;51.110;-4.158;2023-06-22T05:13:54;101491.72;;;18.45;52.79
17649;BME280;8943;51.110;-4.158;2023-06-22T05:16:24;101489.84;;;18.55;53.09
17649;BME280;8943;51.110;-4.158;2023-06-22T05:18:53;101498.38;;;18.60;53.02
17649;BME280;8943;51.110;-4.158;2023-06-22T05:21:23;101505.63;;;18.69;53.10
17649;BME280;8943;51.110;-4.158;2023-06-22T05:23:52;101507.72;;;18.75;53.19
17649;BME280;8943;51.110;-4.158;2023-06-22T05:26:22;101515.94;;;18.84;52.93
17649;BME280;8943;51.110;-4.158;2023-06-22T05:28:51;101517.06;;;18.91;53.02
17649;BME280;8943;51.110;-4.158;2023-06-22T05:31:19;101513.06;;;18.95;52.97
17649;BME280;8943;51.110;-4.158;2023-06-22T05:33:51;101515.00;;;19.02;53.02
17649;BME280;8943;51.110;-4.158;2023-06-22T05:36:21;101522.53;;;19.09;52.82
17649;BME280;8943;51.110;-4.158;2023-06-22T05:38:52;101521.22;;;19.13;52.85
17649;BME280;8943;51.110;-4.158;2023-06-22T05:41:21;101520.66;;;19.19;52.88
17649;BME280;8943;51.110;-4.158;2023-06-22T05:43:49;101518.19;;;19.25;52.51
17649;BME280;8943;51.110;-4.158;2023-06-22T05:46:19;101524.72;;;19.33;52.92
17649;BME280;8943;51.110;-4.158;2023-06-22T05:48:48;101526.81;;;19.39;52.95
17649;BME280;8943;51.110;-4.158;2023-06-22T05:51:22;101527.59;;;19.49;53.04
17649;BME280;8943;51.110;-4.158;2023-06-22T05:53:51;101533.78;;;19.59;52.87
17649;BME280;8943;51.110;-4.158;2023-06-22T05:56:20;101523.97;;;19.68;52.82
17649;BME280;8943;51.110;-4.158;2023-06-22T05:58:49;101529.44;;;19.76;52.86
17649;BME280;8943;51.110;-4.158;2023-06-22T06:01:24;101529.69;;;19.83;52.51
17649;BME280;8943;51.110;-4.158;2023-06-22T06:04:04;101535.16;;;19.91;52.68
17649;BME280;8943;51.110;-4.158;2023-06-22T06:06:36;101526.47;;;19.97;52.79
17649;BME280;8943;51.110;-4.158;2023-06-22T06:09:05;101530.56;;;20.01;52.79
17649;BME280;8943;51.110;-4.158;2023-06-22T06:11:38;101532.63;;;20.07;52.72
17649;BME280;8943;51.110;-4.158;2023-06-22T06:14:23;101520.19;;;20.14;52.60
17649;BME280;8943;51.110;-4.158;2023-06-22T06:17:08;101530.78;;;20.25;52.41
17649;BME280;8943;51.110;-4.158;2023-06-22T06:19:40;101525.03;;;20.28;52.72
17649;BME280;8943;51.110;-4.158;2023-06-22T06:22:11;101527.81;;;20.37;52.62
17649;BME280;8943;51.110;-4.158;2023-06-22T06:24:40;101525.50;;;20.42;52.71
17649;BME280;8943;51.110;-4.158;2023-06-22T06:27:09;101531.16;;;20.48;52.66
17649;BME280;8943;51.110;-4.158;2023-06-22T06:29:40;101528.81;;;20.53;52.59
17649;BME280;8943;51.110;-4.158;2023-06-22T06:32:11;101537.84;;;20.62;52.17
17649;BME280;8943;51.110;-4.158;2023-06-22T06:34:52;101534.50;;;20.68;52.76
17649;BME280;8943;51.110;-4.158;2023-06-22T06:37:24;101536.97;;;20.79;52.39
17649;BME280;8943;51.110;-4.158;2023-06-22T06:39:52;101542.41;;;20.88;52.67
17649;BME280;8943;51.110;-4.158;2023-06-22T06:42:26;101546.50;;;20.92;52.38
17649;BME280;8943;51.110;-4.158;2023-06-22T06:44:58;101544.00;;;20.98;52.71
17649;BME280;8943;51.110;-4.158;2023-06-22T06:47:28;101544.59;;;21.10;52.68
17649;BME280;8943;51.110;-4.158;2023-06-22T06:49:58;101546.69;;;21.24;52.54
17649;BME280;8943;51.110;-4.158;2023-06-22T06:52:39;101555.41;;;21.36;52.79
17649;BME280;8943;51.110;-4.158;2023-06-22T06:55:11;101560.22;;;21.50;52.84
17649;BME280;8943;51.110;-4.158;2023-06-22T06:58:11;101553.81;;;21.59;52.84
17649;BME280;8943;51.110;-4.158;2023-06-22T07:01:07;101554.88;;;21.75;52.46
17649;BME280;8943;51.110;-4.158;2023-06-22T07:04:07;101560.66;;;21.80;52.59
17649;BME280;8943;51.110;-4.158;2023-06-22T07:06:44;101562.53;;;21.88;52.84
17649;BME280;8943;51.110;-4.158;2023-06-22T07:12:48;101569.06;;;22.11;52.35
17649;BME280;8943;51.110;-4.158;2023-06-22T07:15:17;101573.47;;;22.20;52.20
17649;BME280;8943;51.110;-4.158;2023-06-22T07:17:47;101579.94;;;22.27;52.37
17649;BME280;8943;51.110;-4.158;2023-06-22T07:20:16;101577.75;;;22.31;52.47
17649;BME280;8943;51.110;-4.158;2023-06-22T07:22:46;101584.34;;;22.36;52.52
17649;BME280;8943;51.110;-4.158;2023-06-22T07:25:19;101577.91;;;22.46;52.64
17649;BME280;8943;51.110;-4.158;2023-06-22T07:27:59;101587.41;;;22.58;52.63
17649;BME280;8943;51.110;-4.158;2023-06-22T07:30:30;101581.81;;;22.68;52.48
17649;BME280;8943;51.110;-4.158;2023-06-22T07:33:01;101581.97;;;22.74;52.32
17649;BME280;8943;51.110;-4.158;2023-06-22T07:35:38;101573.47;;;22.77;52.46
17649;BME280;8943;51.110;-4.158;2023-06-22T07:38:08;101572.78;;;22.83;52.44
17649;BME280;8943;51.110;-4.158;2023-06-22T07:40:52;101580.59;;;22.86;52.49
17649;BME280;8943;51.110;-4.158;2023-06-22T07:43:43;101577.22;;;22.93;52.58
17649;BME280;8943;51.110;-4.158;2023-06-22T07:46:40;101582.81;;;22.99;52.62
17649;BME280;8943;51.110;-4.158;2023-06-22T07:49:28;101578.22;;;23.00;52.87
17649;BME280;8943;51.110;-4.158;2023-06-22T07:52:30;101575.31;;;23.09;52.85
17649;BME280;8943;51.110;-4.158;2023-06-22T07:55:21;101577.84;;;23.19;53.06
17649;BME280;8943;51.110;-4.158;2023-06-22T07:58:14;101583.50;;;23.49;52.79
17649;BME280;8943;51.110;-4.158;2023-06-22T08:01:09;101578.63;;;23.75;53.05
17649;BME280;8943;51.110;-4.158;2023-06-22T08:07:21;101584.81;;;24.23;51.63
17649;BME280;8943;51.110;-4.158;2023-06-22T08:09:57;101591.94;;;24.24;51.18
17649;BME280;8943;51.110;-4.158;2023-06-22T08:12:30;101596.94;;;24.21;50.81
17649;BME280;8943;51.110;-4.158;2023-06-22T08:15:14;101596.19;;;24.04;50.60
17649;BME280;8943;51.110;-4.158;2023-06-22T08:17:46;101601.34;;;23.90;50.45
17649;BME280;8943;51.110;-4.158;2023-06-22T08:20:14;101606.16;;;23.80;50.28
17649;BME280;8943;51.110;-4.158;2023-06-22T08:22:53;101601.31;;;23.68;50.51
17649;BME280;8943;51.110;-4.158;2023-06-22T08:25:25;101600.47;;;23.67;50.78
17649;BME280;8943;51.110;-4.158;2023-06-22T08:28:03;101612.00;;;23.77;50.28
17649;BME280;8943;51.110;-4.158;2023-06-22T08:31:15;101608.25;;;23.78;49.88
17649;BME280;8943;51.110;-4.158;2023-06-22T08:37:16;101603.44;;;23.80;49.87
17649;BME280;8943;51.110;-4.158;2023-06-22T08:40:04;101610.44;;;23.83;49.33
17649;BME280;8943;51.110;-4.158;2023-06-22T08:42:42;101606.94;;;23.97;49.67
17649;BME280;8943;51.110;-4.158;2023-06-22T08:48:08;101614.72;;;24.31;48.67
17649;BME280;8943;51.110;-4.158;2023-06-22T08:50:57;101625.31;;;24.26;48.33
17649;BME280;8943;51.110;-4.158;2023-06-22T08:56:56;101615.81;;;24.22;47.11
17649;BME280;8943;51.110;-4.158;2023-06-22T08:59:40;101615.44;;;24.25;47.25
17649;BME280;8943;51.110;-4.158;2023-06-22T09:02:10;101620.50;;;24.36;47.17
17649;BME280;8943;51.110;-4.158;2023-06-22T09:25:18;101636.50;;;25.00;46.59
17649;BME280;8943;51.110;-4.158;2023-06-22T09:27:48;101636.25;;;25.10;46.58
17649;BME280;8943;51.110;-4.158;2023-06-22T09:30:19;101629.19;;;25.15;46.75
17649;BME280;8943;51.110;-4.158;2023-06-22T09:32:55;101637.03;;;25.33;46.54
17649;BME280;8943;51.110;-4.158;2023-06-22T09:35:27;101634.19;;;25.41;46.30
17649;BME280;8943;51.110;-4.158;2023-06-22T09:37:58;101635.16;;;25.49;46.14
17649;BME280;8943;51.110;-4.158;2023-06-22T09:40:30;101637.13;;;25.40;45.91
17649;BME280;8943;51.110;-4.158;2023-06-22T09:43:02;101633.47;;;25.48;45.83
17649;BME280;8943;51.110;-4.158;2023-06-22T09:45:30;101629.50;;;25.35;45.79
17649;BME280;8943;51.110;-4.158;2023-06-22T09:51:17;101635.88;;;25.42;45.89
17649;BME280;8943;51.110;-4.158;2023-06-22T09:53:46;101637.13;;;25.40;45.85
17649;BME280;8943;51.110;-4.158;2023-06-22T09:56:33;101632.03;;;25.37;45.70
17649;BME280;8943;51.110;-4.158;2023-06-22T09:59:08;101640.03;;;25.38;45.71
17649;BME280;8943;51.110;-4.158;2023-06-22T10:01:44;101624.59;;;25.31;45.50
17649;BME280;8943;51.110;-4.158;2023-06-22T10:04:16;101633.28;;;25.34;45.49
17649;BME280;8943;51.110;-4.158;2023-06-22T10:06:45;101628.72;;;25.27;45.57
17649;BME280;8943;51.110;-4.158;2023-06-22T10:09:14;101636.06;;;25.26;45.24
17649;BME280;8943;51.110;-4.158;2023-06-22T10:14:43;101630.13;;;25.23;45.43
17649;BME280;8943;51.110;-4.158;2023-06-22T10:17:16;101633.41;;;25.18;45.74
17649;BME280;8943;51.110;-4.158;2023-06-22T10:19:45;101638.72;;;25.20;45.54
17649;BME280;8943;51.110;-4.158;2023-06-22T10:22:17;101634.09;;;25.20;45.16
17649;BME280;8943;51.110;-4.158;2023-06-22T10:24:46;101637.19;;;25.17;45.50
17649;BME280;8943;51.110;-4.158;2023-06-22T10:27:18;101638.16;;;25.24;45.54
17649;BME280;8943;51.110;-4.158;2023-06-22T10:29:50;101631.00;;;25.23;45.75
17649;BME280;8943;51.110;-4.158;2023-06-22T10:32:39;101620.75;;;25.25;45.27
17649;BME280;8943;51.110;-4.158;2023-06-22T10:35:09;101623.84;;;25.22;45.38
17649;BME280;8943;51.110;-4.158;2023-06-22T10:37:41;101617.94;;;25.19;44.66
17649;BME280;8943;51.110;-4.158;2023-06-22T10:40:19;101627.41;;;25.23;44.03
17649;BME280;8943;51.110;-4.158;2023-06-22T10:42:50;101620.38;;;25.13;44.32
17649;BME280;8943;51.110;-4.158;2023-06-22T10:45:23;101626.66;;;25.14;44.12
17649;BME280;8943;51.110;-4.158;2023-06-22T10:47:52;101616.84;;;25.05;44.28
17649;BME280;8943;51.110;-4.158;2023-06-22T10:50:22;101621.78;;;25.09;44.41
17649;BME280;8943;51.110;-4.158;2023-06-22T10:53:07;101633.53;;;25.10;44.62
17649;BME280;8943;51.110;-4.158;2023-06-22T10:55:35;101630.41;;;25.13;44.19
17649;BME280;8943;51.110;-4.158;2023-06-22T10:58:21;101644.25;;;25.11;44.46
17649;BME280;8943;51.110;-4.158;2023-06-22T11:00:51;101649.34;;;25.14;44.13
17649;BME280;8943;51.110;-4.158;2023-06-22T11:03:22;101651.94;;;25.08;44.12
17649;BME280;8943;51.110;-4.158;2023-06-22T11:05:51;101649.22;;;25.08;44.18
17649;BME280;8943;51.110;-4.158;2023-06-22T11:08:31;101650.78;;;25.02;44.07
17649;BME280;8943;51.110;-4.158;2023-06-22T11:11:00;101652.38;;;24.97;44.87
17649;BME280;8943;51.110;-4.158;2023-06-22T11:13:29;101654.19;;;25.04;45.03
17649;BME280;8943;51.110;-4.158;2023-06-22T11:16:10;101664.84;;;25.14;45.01
17649;BME280;8943;51.110;-4.158;2023-06-22T11:18:40;101660.34;;;25.21;44.28
17649;BME280;8943;51.110;-4.158;2023-06-22T11:21:11;101661.09;;;25.30;44.16
17649;BME280;8943;51.110;-4.158;2023-06-22T11:23:45;101664.41;;;25.40;43.96
17649;BME280;8943;51.110;-4.158;2023-06-22T11:26:16;101653.97;;;25.43;43.21
17649;BME280;8943;51.110;-4.158;2023-06-22T11:28:47;101672.88;;;25.45;42.67
17649;BME280;8943;51.110;-4.158;2023-06-22T11:31:33;101658.75;;;25.41;43.17
17649;BME280;8943;51.110;-4.158;2023-06-22T11:34:08;101666.66;;;25.51;43.63
17649;BME280;8943;51.110;-4.158;2023-06-22T11:36:51;101663.84;;;25.59;43.13
17649;BME280;8943;51.110;-4.158;2023-06-22T11:39:19;101678.34;;;25.60;42.57
17649;BME280;8943;51.110;-4.158;2023-06-22T11:42:05;101677.50;;;25.59;42.99
17649;BME280;8943;51.110;-4.158;2023-06-22T11:44:37;101682.31;;;25.72;42.71
17649;BME280;8943;51.110;-4.158;2023-06-22T11:47:14;101674.69;;;25.82;42.47
17649;BME280;8943;51.110;-4.158;2023-06-22T11:49:56;101675.13;;;25.86;41.80
17649;BME280;8943;51.110;-4.158;2023-06-22T11:52:25;101674.50;;;25.84;42.46
17649;BME280;8943;51.110;-4.158;2023-06-22T11:55:01;101672.41;;;25.86;41.98
17649;BME280;8943;51.110;-4.158;2023-06-22T11:57:58;101671.78;;;25.84;41.44
17649;BME280;8943;51.110;-4.158;2023-06-22T12:00:35;101670.09;;;25.83;41.75
17649;BME280;8943;51.110;-4.158;2023-06-22T12:03:19;101665.94;;;25.87;42.35
17649;BME280;8943;51.110;-4.158;2023-06-22T12:05:56;101661.59;;;25.92;42.56
17649;BME280;8943;51.110;-4.158;2023-06-22T12:09:02;101659.50;;;25.94;41.68
17649;BME280;8943;51.110;-4.158;2023-06-22T12:11:45;101671.47;;;25.93;41.85
17649;BME280;8943;51.110;-4.158;2023-06-22T12:14:20;101665.25;;;26.00;41.40
17649;BME280;8943;51.110;-4.158;2023-06-22T12:17:07;101666.44;;;26.12;42.27
17649;BME280;8943;51.110;-4.158;2023-06-22T12:23:08;101665.84;;;26.31;41.72
17649;BME280;8943;51.110;-4.158;2023-06-22T12:26:00;101659.97;;;26.34;40.60
17649;BME280;8943;51.110;-4.158;2023-06-22T12:28:50;101663.81;;;26.40;40.88
17649;BME280;8943;51.110;-4.158;2023-06-22T12:31:23;101668.41;;;26.39;40.42
17649;BME280;8943;51.110;-4.158;2023-06-22T12:34:21;101662.78;;;26.41;40.54
17649;BME280;8943;51.110;-4.158;2023-06-22T12:37:05;101659.28;;;26.47;40.64
17649;BME280;8943;51.110;-4.158;2023-06-22T12:39:37;101660.06;;;26.62;40.25
17649;BME280;8943;51.110;-4.158;2023-06-22T12:42:07;101666.25;;;26.71;40.51
17649;BME280;8943;51.110;-4.158;2023-06-22T12:44:41;101666.19;;;26.86;39.98
17649;BME280;8943;51.110;-4.158;2023-06-22T12:47:13;101665.00;;;26.95;39.56
17649;BME280;8943;51.110;-4.158;2023-06-22T12:49:44;101658.69;;;26.94;38.78
17649;BME280;8943;51.110;-4.158;2023-06-22T12:52:24;101668.84;;;27.01;39.04
17649;BME280;8943;51.110;-4.158;2023-06-22T12:54:56;101663.41;;;27.07;38.92
17649;BME280;8943;51.110;-4.158;2023-06-22T13:00:56;101665.22;;;27.21;38.66
17649;BME280;8943;51.110;-4.158;2023-06-22T13:03:42;101667.34;;;27.54;37.92
17649;BME280;8943;51.110;-4.158;2023-06-22T13:06:27;101664.13;;;27.44;38.37
17649;BME280;8943;51.110;-4.158;2023-06-22T13:08:58;101663.22;;;27.37;39.25
17649;BME280;8943;51.110;-4.158;2023-06-22T13:11:49;101668.34;;;27.81;39.44
17649;BME280;8943;51.110;-4.158;2023-06-22T13:31:50;101676.88;;;29.27;35.75
17649;BME280;8943;51.110;-4.158;2023-06-22T13:34:41;101679.19;;;29.57;35.89
17649;BME280;8943;51.110;-4.158;2023-06-22T13:37:26;101677.00;;;29.79;35.29
17649;BME280;8943;51.110;-4.158;2023-06-22T13:52:11;101687.31;;;31.05;33.29
17649;BME280;8943;51.110;-4.158;2023-06-22T13:54:47;101688.25;;;31.17;33.15
17649;BME280;8943;51.110;-4.158;2023-06-22T13:57:27;101690.28;;;31.28;32.99
17649;BME280;8943;51.110;-4.158;2023-06-22T14:44:16;101714.66;;;32.41;31.18
17649;BME280;8943;51.110;-4.158;2023-06-22T14:46:56;101718.88;;;32.25;31.53
17649;BME280;8943;51.110;-4.158;2023-06-22T14:49:53;101718.50;;;32.22;31.75
17649;BME280;8943;51.110;-4.158;2023-06-22T14:52:22;101713.59;;;32.42;31.93
17649;BME280;8943;51.110;-4.158;2023-06-22T15:13:27;101726.91;;;32.87;29.94
17649;BME280;8943;51.110;-4.158;2023-06-22T15:16:01;101731.22;;;32.83;30.09
17649;BME280;8943;51.110;-4.158;2023-06-22T15:19:09;101716.66;;;32.64;30.41
17649;BME280;8943;51.110;-4.158;2023-06-22T15:21:36;101724.72;;;32.66;30.51
17649;BME280;8943;51.110;-4.158;2023-06-22T15:24:17;101726.91;;;32.87;30.88
17649;BME280;8943;51.110;-4.158;2023-06-22T15:26:49;101721.84;;;33.26;30.38
17649;BME280;8943;51.110;-4.158;2023-06-22T15:29:32;101723.06;;;33.65;29.97
17649;BME280;8943;51.110;-4.158;2023-06-22T15:32:02;101724.13;;;33.76;29.46
17649;BME280;8943;51.110;-4.158;2023-06-22T15:34:31;101723.13;;;33.94;29.67
17649;BME280;8943;51.110;-4.158;2023-06-22T15:39:43;101728.03;;;34.55;28.01
17649;BME280;8943;51.110;-4.158;2023-06-22T15:42:16;101729.38;;;34.70;27.92
17649;BME280;8943;51.110;-4.158;2023-06-22T15:51:10;101737.09;;;33.17;30.00
17649;BME280;8943;51.110;-4.158;2023-06-22T15:53:57;101730.22;;;33.08;30.03
17649;BME280;8943;51.110;-4.158;2023-06-22T15:56:41;101729.13;;;33.09;30.62